sensor_id;sensor_type;location;lat;lon;timestamp;P1;durP1;ratioP1;P2;durP2;ratioP2
39098;SDS011;24844;52.380;7.018;2024-02-04T00:01:52;47.95;;;30.63;;
39098;SDS011;24844;52.380;7.018;2024-02-04T00:04:18;55.53;;;33.92;;
39098;SDS011;24844;52.380;7.018;2024-02-04T00:06:44;50.08;;;31.63;;
39098;SDS011;24844;52.380;7.018;2024-02-04T00:09:10;50.05;;;31.50;;
39098;SDS011;24844;52.380;7.018;2024-02-04T00:11:37;37.17;;;25.50;;
39098;SDS011;24844;52.380;7.018;2024-02-04T00:14:03;46.53;;;29.55;;
39098;SDS011;24844;52.380;7.018;2024-02-04T00:16:29;52.92;;;31.20;;
39098;SDS011;24844;52.380;7.018;2024-02-04T00:18:55;42.53;;;27.45;;
39098;SDS011;24844;52.380;7.018;2024-02-04T00:21:21;49.35;;;27.75;;
39098;SDS011;24844;52.380;7.018;2024-02-04T00:23:47;41.08;;;25.88;;
39098;SDS011;24844;52.380;7.018;2024-02-04T00:26:13;34.35;;;20.55;;
39098;SDS011;24844;52.380;7.018;2024-02-04T00:28:39;31.75;;;20.30;;
39098;SDS011;24844;52.380;7.018;2024-02-04T00:31:08;33.65;;;19.45;;
39098;SDS011;24844;52.380;7.018;2024-02-04T00:33:34;26.58;;;16.55;;
39098;SDS011;24844;52.380;7.018;2024-02-04T00:36:00;28.10;;;15.95;;
39098;SDS011;24844;52.380;7.018;2024-02-04T00:38:27;26.33;;;16.45;;
39098;SDS011;24844;52.380;7.018;2024-02-04T00:40:53;25.50;;;15.18;;
39098;SDS011;24844;52.380;7.018;2024-02-04T00:43:19;26.80;;;12.80;;
39098;SDS011;24844;52.380;7.018;2024-02-04T00:45:45;19.52;;;11.90;;
39098;SDS011;24844;52.380;7.018;2024-02-04T00:48:11;20.00;;;11.25;;
39098;SDS011;24844;52.380;7.018;2024-02-04T00:50:37;18.20;;;10.63;;
39098;SDS011;24844;52.380;7.018;2024-02-04T00:53:03;21.90;;;10.65;;
39098;SDS011;24844;52.380;7.018;2024-02-04T00:55:32;20.73;;;11.15;;
39098;SDS011;24844;52.380;7.018;2024-02-04T00:57:59;22.40;;;10.77;;
39098;SDS011;24844;52.380;7.018;2024-02-04T01:00:29;23.35;;;9.90;;
39098;SDS011;24844;52.380;7.018;2024-02-04T01:02:55;20.25;;;10.43;;
39098;SDS011;24844;52.380;7.018;2024-02-04T01:05:21;18.35;;;9.15;;
39098;SDS011;24844;52.380;7.018;2024-02-04T01:07:47;25.77;;;9.95;;
39098;SDS011;24844;52.380;7.018;2024-02-04T01:10:13;21.80;;;9.90;;
39098;SDS011;24844;52.380;7.018;2024-02-04T01:12:39;27.10;;;10.55;;
39098;SDS011;24844;52.380;7.018;2024-02-04T01:15:05;22.45;;;9.55;;
39098;SDS011;24844;52.380;7.018;2024-02-04T01:17:32;23.15;;;9.73;;
39098;SDS011;24844;52.380;7.018;2024-02-04T01:19:58;19.98;;;9.23;;
39098;SDS011;24844;52.380;7.018;2024-02-04T01:22:25;24.05;;;10.13;;
39098;SDS011;24844;52.380;7.018;2024-02-04T01:24:52;26.10;;;10.23;;
39098;SDS011;24844;52.380;7.018;2024-02-04T01:27:18;24.75;;;11.75;;
39098;SDS011;24844;52.380;7.018;2024-02-04T01:29:44;26.73;;;13.95;;
39098;SDS011;24844;52.380;7.018;2024-02-04T01:32:10;21.70;;;11.63;;
39098;SDS011;24844;52.380;7.018;2024-02-04T01:34:36;23.65;;;13.25;;
39098;SDS011;24844;52.380;7.018;2024-02-04T01:37:02;31.98;;;15.60;;
39098;SDS011;24844;52.380;7.018;2024-02-04T01:39:28;33.45;;;16.33;;
39098;SDS011;24844;52.380;7.018;2024-02-04T01:41:54;41.25;;;18.42;;
39098;SDS011;24844;52.380;7.018;2024-02-04T01:44:20;28.20;;;16.70;;
39098;SDS011;24844;52.380;7.018;2024-02-04T01:46:47;26.42;;;15.30;;
39098;SDS011;24844;52.380;7.018;2024-02-04T01:49:13;35.22;;;19.08;;
39098;SDS011;24844;52.380;7.018;2024-02-04T01:51:39;25.33;;;17.05;;
39098;SDS011;24844;52.380;7.018;2024-02-04T01:54:05;40.95;;;20.70;;
39098;SDS011;24844;52.380;7.018;2024-02-04T01:56:32;32.50;;;18.90;;
39098;SDS011;24844;52.380;7.018;2024-02-04T01:58:58;33.83;;;19.98;;
39098;SDS011;24844;52.380;7.018;2024-02-04T02:01:25;24.98;;;17.13;;
39098;SDS011;24844;52.380;7.018;2024-02-04T02:03:52;39.28;;;22.02;;
39098;SDS011;24844;52.380;7.018;2024-02-04T02:06:18;29.23;;;18.20;;
39098;SDS011;24844;52.380;7.018;2024-02-04T02:08:44;39.10;;;19.33;;
39098;SDS011;24844;52.380;7.018;2024-02-04T02:11:13;31.10;;;18.88;;
39098;SDS011;24844;52.380;7.018;2024-02-04T02:13:43;37.35;;;20.60;;
39098;SDS011;24844;52.380;7.018;2024-02-04T02:16:11;28.75;;;18.48;;
39098;SDS011;24844;52.380;7.018;2024-02-04T02:18:52;33.65;;;19.42;;
39098;SDS011;24844;52.380;7.018;2024-02-04T02:21:30;42.70;;;22.25;;
39098;SDS011;24844;52.380;7.018;2024-02-04T02:24:11;35.83;;;20.10;;
39098;SDS011;24844;52.380;7.018;2024-02-04T02:26:37;44.17;;;23.52;;
39098;SDS011;24844;52.380;7.018;2024-02-04T02:29:04;40.60;;;23.55;;
39098;SDS011;24844;52.380;7.018;2024-02-04T02:31:30;34.58;;;20.83;;
39098;SDS011;24844;52.380;7.018;2024-02-04T02:33:56;42.10;;;21.20;;
39098;SDS011;24844;52.380;7.018;2024-02-04T02:36:22;45.22;;;22.92;;
39098;SDS011;24844;52.380;7.018;2024-02-04T02:41:18;38.45;;;22.33;;
39098;SDS011;24844;52.380;7.018;2024-02-04T02:43:45;39.67;;;22.15;;
39098;SDS011;24844;52.380;7.018;2024-02-04T02:46:12;42.33;;;24.00;;
39098;SDS011;24844;52.380;7.018;2024-02-04T02:48:38;33.30;;;20.42;;
39098;SDS011;24844;52.380;7.018;2024-02-04T02:51:04;35.45;;;19.77;;
39098;SDS011;24844;52.380;7.018;2024-02-04T02:53:30;37.22;;;23.00;;
39098;SDS011;24844;52.380;7.018;2024-02-04T02:55:56;37.20;;;23.40;;
39098;SDS011;24844;52.380;7.018;2024-02-04T02:58:22;45.13;;;23.50;;
39098;SDS011;24844;52.380;7.018;2024-02-04T03:00:48;38.10;;;21.40;;
39098;SDS011;24844;52.380;7.018;2024-02-04T03:03:14;33.92;;;18.50;;
39098;SDS011;24844;52.380;7.018;2024-02-04T03:05:40;27.45;;;17.55;;
39098;SDS011;24844;52.380;7.018;2024-02-04T03:08:06;29.95;;;18.60;;
39098;SDS011;24844;52.380;7.018;2024-02-04T03:10:32;32.38;;;18.67;;
39098;SDS011;24844;52.380;7.018;2024-02-04T03:12:58;27.85;;;16.13;;
39098;SDS011;24844;52.380;7.018;2024-02-04T03:15:24;33.17;;;17.95;;
39098;SDS011;24844;52.380;7.018;2024-02-04T03:17:50;27.58;;;17.02;;
39098;SDS011;24844;52.380;7.018;2024-02-04T03:20:16;28.67;;;17.10;;
39098;SDS011;24844;52.380;7.018;2024-02-04T03:22:42;26.65;;;15.55;;
39098;SDS011;24844;52.380;7.018;2024-02-04T03:25:09;19.08;;;13.95;;
39098;SDS011;24844;52.380;7.018;2024-02-04T03:27:35;26.15;;;14.32;;
39098;SDS011;24844;52.380;7.018;2024-02-04T03:30:02;20.55;;;11.82;;
39098;SDS011;24844;52.380;7.018;2024-02-04T03:32:28;22.33;;;13.43;;
39098;SDS011;24844;52.380;7.018;2024-02-04T03:34:58;24.95;;;13.20;;
39098;SDS011;24844;52.380;7.018;2024-02-04T03:37:24;19.25;;;11.60;;
39098;SDS011;24844;52.380;7.018;2024-02-04T03:39:50;22.58;;;12.07;;
39098;SDS011;24844;52.380;7.018;2024-02-04T03:42:16;22.73;;;13.35;;
39098;SDS011;24844;52.380;7.018;2024-02-04T03:44:43;21.63;;;12.60;;
39098;SDS011;24844;52.380;7.018;2024-02-04T03:47:09;25.75;;;13.30;;
39098;SDS011;24844;52.380;7.018;2024-02-04T03:49:35;19.60;;;11.50;;
39098;SDS011;24844;52.380;7.018;2024-02-04T03:52:01;20.90;;;12.30;;
39098;SDS011;24844;52.380;7.018;2024-02-04T03:54:27;27.27;;;12.90;;
39098;SDS011;24844;52.380;7.018;2024-02-04T03:56:53;23.27;;;12.30;;
39098;SDS011;24844;52.380;7.018;2024-02-04T03:59:19;20.90;;;12.32;;
39098;SDS011;24844;52.380;7.018;2024-02-04T04:01:49;20.85;;;11.85;;
39098;SDS011;24844;52.380;7.018;2024-02-04T04:04:15;21.05;;;12.27;;
39098;SDS011;24844;52.380;7.018;2024-02-04T04:06:42;25.23;;;12.57;;
39098;SDS011;24844;52.380;7.018;2024-02-04T04:09:08;22.98;;;12.75;;
39098;SDS011;24844;52.380;7.018;2024-02-04T04:11:34;23.33;;;12.88;;
39098;SDS011;24844;52.380;7.018;2024-02-04T04:14:00;25.13;;;12.50;;
39098;SDS011;24844;52.380;7.018;2024-02-04T04:16:26;21.60;;;12.50;;
39098;SDS011;24844;52.380;7.018;2024-02-04T04:18:52;18.90;;;11.48;;
39098;SDS011;24844;52.380;7.018;2024-02-04T04:21:18;20.95;;;11.65;;
39098;SDS011;24844;52.380;7.018;2024-02-04T04:23:44;15.55;;;10.05;;
39098;SDS011;24844;52.380;7.018;2024-02-04T04:26:10;19.30;;;9.27;;
39098;SDS011;24844;52.380;7.018;2024-02-04T04:28:36;20.70;;;9.25;;
39098;SDS011;24844;52.380;7.018;2024-02-04T04:31:02;16.65;;;8.25;;
39098;SDS011;24844;52.380;7.018;2024-02-04T04:33:28;18.38;;;8.85;;
39098;SDS011;24844;52.380;7.018;2024-02-04T04:35:55;18.17;;;9.23;;
39098;SDS011;24844;52.380;7.018;2024-02-04T04:38:21;16.85;;;8.20;;
39098;SDS011;24844;52.380;7.018;2024-02-04T04:40:47;21.15;;;9.35;;
39098;SDS011;24844;52.380;7.018;2024-02-04T04:43:13;16.65;;;8.65;;
39098;SDS011;24844;52.380;7.018;2024-02-04T04:45:39;21.10;;;7.88;;
39098;SDS011;24844;52.380;7.018;2024-02-04T04:48:06;23.48;;;8.50;;
39098;SDS011;24844;52.380;7.018;2024-02-04T04:50:35;18.30;;;7.65;;
39098;SDS011;24844;52.380;7.018;2024-02-04T04:53:01;18.08;;;7.78;;
39098;SDS011;24844;52.380;7.018;2024-02-04T04:55:27;14.90;;;7.93;;
39098;SDS011;24844;52.380;7.018;2024-02-04T04:57:53;15.38;;;7.03;;
39098;SDS011;24844;52.380;7.018;2024-02-04T05:00:19;17.90;;;7.22;;
39098;SDS011;24844;52.380;7.018;2024-02-04T05:02:45;22.02;;;8.75;;
39098;SDS011;24844;52.380;7.018;2024-02-04T05:05:13;20.95;;;7.50;;
39098;SDS011;24844;52.380;7.018;2024-02-04T05:07:40;14.35;;;6.32;;
39098;SDS011;24844;52.380;7.018;2024-02-04T05:10:06;16.90;;;7.45;;
39098;SDS011;24844;52.380;7.018;2024-02-04T05:12:32;12.35;;;6.65;;
39098;SDS011;24844;52.380;7.018;2024-02-04T05:14:59;22.75;;;7.68;;
39098;SDS011;24844;52.380;7.018;2024-02-04T05:17:26;16.95;;;6.45;;
39098;SDS011;24844;52.380;7.018;2024-02-04T05:19:52;19.92;;;6.45;;
39098;SDS011;24844;52.380;7.018;2024-02-04T05:22:18;14.30;;;5.50;;
39098;SDS011;24844;52.380;7.018;2024-02-04T05:24:44;18.15;;;5.25;;
39098;SDS011;24844;52.380;7.018;2024-02-04T05:27:10;13.70;;;5.03;;
39098;SDS011;24844;52.380;7.018;2024-02-04T05:29:36;13.75;;;4.47;;
39098;SDS011;24844;52.380;7.018;2024-02-04T05:32:05;15.00;;;4.50;;
39098;SDS011;24844;52.380;7.018;2024-02-04T05:34:33;14.82;;;4.25;;
39098;SDS011;24844;52.380;7.018;2024-02-04T05:36:59;14.85;;;3.90;;
39098;SDS011;24844;52.380;7.018;2024-02-04T05:39:25;12.98;;;4.07;;
39098;SDS011;24844;52.380;7.018;2024-02-04T05:41:51;14.07;;;3.67;;
39098;SDS011;24844;52.380;7.018;2024-02-04T05:44:17;16.10;;;4.13;;
39098;SDS011;24844;52.380;7.018;2024-02-04T05:46:43;12.18;;;2.80;;
39098;SDS011;24844;52.380;7.018;2024-02-04T05:49:09;12.23;;;3.28;;
39098;SDS011;24844;52.380;7.018;2024-02-04T05:51:39;14.55;;;3.05;;
39098;SDS011;24844;52.380;7.018;2024-02-04T05:54:05;12.57;;;2.63;;
39098;SDS011;24844;52.380;7.018;2024-02-04T05:56:31;15.73;;;3.85;;
39098;SDS011;24844;52.380;7.018;2024-02-04T05:58:57;13.20;;;3.42;;
39098;SDS011;24844;52.380;7.018;2024-02-04T06:01:23;12.07;;;3.10;;
39098;SDS011;24844;52.380;7.018;2024-02-04T06:03:49;14.55;;;2.80;;
39098;SDS011;24844;52.380;7.018;2024-02-04T06:06:16;12.93;;;3.88;;
39098;SDS011;24844;52.380;7.018;2024-02-04T06:11:10;73.63;;;5.05;;
39098;SDS011;24844;52.380;7.018;2024-02-04T06:13:37;114.55;;;7.38;;
39098;SDS011;24844;52.380;7.018;2024-02-04T06:16:04;14.32;;;2.65;;
39098;SDS011;24844;52.380;7.018;2024-02-04T06:18:30;8.55;;;2.30;;
39098;SDS011;24844;52.380;7.018;2024-02-04T06:20:56;10.52;;;2.30;;
39098;SDS011;24844;52.380;7.018;2024-02-04T06:23:22;10.85;;;2.67;;
39098;SDS011;24844;52.380;7.018;2024-02-04T06:25:48;10.88;;;3.50;;
39098;SDS011;24844;52.380;7.018;2024-02-04T06:28:14;7.85;;;2.20;;
39098;SDS011;24844;52.380;7.018;2024-02-04T06:30:40;8.68;;;2.60;;
39098;SDS011;24844;52.380;7.018;2024-02-04T06:33:06;12.65;;;2.40;;
39098;SDS011;24844;52.380;7.018;2024-02-04T06:35:32;11.48;;;2.58;;
39098;SDS011;24844;52.380;7.018;2024-02-04T06:37:58;11.75;;;3.28;;
39098;SDS011;24844;52.380;7.018;2024-02-04T06:40:24;11.90;;;2.25;;
39098;SDS011;24844;52.380;7.018;2024-02-04T06:42:50;10.23;;;2.38;;
39098;SDS011;24844;52.380;7.018;2024-02-04T06:45:18;11.80;;;2.53;;
39098;SDS011;24844;52.380;7.018;2024-02-04T06:47:44;11.55;;;2.50;;
39098;SDS011;24844;52.380;7.018;2024-02-04T06:50:10;8.15;;;2.08;;
39098;SDS011;24844;52.380;7.018;2024-02-04T06:52:39;19.80;;;2.67;;
39098;SDS011;24844;52.380;7.018;2024-02-04T06:55:05;13.43;;;2.67;;
39098;SDS011;24844;52.380;7.018;2024-02-04T06:57:33;10.25;;;2.53;;
39098;SDS011;24844;52.380;7.018;2024-02-04T06:59:59;10.95;;;2.40;;
39098;SDS011;24844;52.380;7.018;2024-02-04T07:02:25;9.07;;;2.08;;
39098;SDS011;24844;52.380;7.018;2024-02-04T07:04:52;15.90;;;2.65;;
39098;SDS011;24844;52.380;7.018;2024-02-04T07:07:18;11.32;;;2.75;;
39098;SDS011;24844;52.380;7.018;2024-02-04T07:09:44;10.68;;;1.98;;
39098;SDS011;24844;52.380;7.018;2024-02-04T07:12:10;11.65;;;2.03;;
39098;SDS011;24844;52.380;7.018;2024-02-04T07:14:36;13.13;;;2.38;;
39098;SDS011;24844;52.380;7.018;2024-02-04T07:17:02;11.88;;;3.00;;
39098;SDS011;24844;52.380;7.018;2024-02-04T07:19:28;13.25;;;2.50;;
39098;SDS011;24844;52.380;7.018;2024-02-04T07:21:54;7.32;;;1.80;;
39098;SDS011;24844;52.380;7.018;2024-02-04T07:24:20;10.75;;;2.50;;
39098;SDS011;24844;52.380;7.018;2024-02-04T07:26:46;13.48;;;2.30;;
39098;SDS011;24844;52.380;7.018;2024-02-04T07:29:14;11.38;;;2.20;;
39098;SDS011;24844;52.380;7.018;2024-02-04T07:31:40;11.18;;;2.15;;
39098;SDS011;24844;52.380;7.018;2024-02-04T07:34:06;8.43;;;2.15;;
39098;SDS011;24844;52.380;7.018;2024-02-04T07:36:32;14.93;;;2.88;;
39098;SDS011;24844;52.380;7.018;2024-02-04T07:38:58;9.60;;;2.00;;
39098;SDS011;24844;52.380;7.018;2024-02-04T07:41:25;11.80;;;2.15;;
39098;SDS011;24844;52.380;7.018;2024-02-04T07:43:51;10.30;;;2.10;;
39098;SDS011;24844;52.380;7.018;2024-02-04T07:46:17;9.00;;;1.98;;
39098;SDS011;24844;52.380;7.018;2024-02-04T07:48:43;15.75;;;2.35;;
39098;SDS011;24844;52.380;7.018;2024-02-04T07:51:09;12.88;;;3.00;;
39098;SDS011;24844;52.380;7.018;2024-02-04T07:53:35;15.45;;;2.53;;
39098;SDS011;24844;52.380;7.018;2024-02-04T07:56:01;12.95;;;2.40;;
39098;SDS011;24844;52.380;7.018;2024-02-04T07:58:28;14.85;;;2.55;;
39098;SDS011;24844;52.380;7.018;2024-02-04T08:00:54;12.65;;;2.75;;
39098;SDS011;24844;52.380;7.018;2024-02-04T08:03:20;9.00;;;2.60;;
39098;SDS011;24844;52.380;7.018;2024-02-04T08:05:46;12.35;;;2.58;;
39098;SDS011;24844;52.380;7.018;2024-02-04T08:08:12;19.30;;;2.88;;
39098;SDS011;24844;52.380;7.018;2024-02-04T08:10:38;19.95;;;2.95;;
39098;SDS011;24844;52.380;7.018;2024-02-04T08:13:04;51.70;;;4.72;;
39098;SDS011;24844;52.380;7.018;2024-02-04T08:15:31;11.70;;;2.28;;
39098;SDS011;24844;52.380;7.018;2024-02-04T08:17:57;11.50;;;2.72;;
39098;SDS011;24844;52.380;7.018;2024-02-04T08:20:23;11.13;;;2.20;;
39098;SDS011;24844;52.380;7.018;2024-02-04T08:22:49;15.15;;;2.83;;
39098;SDS011;24844;52.380;7.018;2024-02-04T08:25:15;11.75;;;3.08;;
39098;SDS011;24844;52.380;7.018;2024-02-04T08:27:41;28.83;;;3.53;;
39098;SDS011;24844;52.380;7.018;2024-02-04T08:30:07;10.48;;;2.30;;
39098;SDS011;24844;52.380;7.018;2024-02-04T08:32:35;12.93;;;2.17;;
39098;SDS011;24844;52.380;7.018;2024-02-04T08:35:01;10.85;;;2.72;;
39098;SDS011;24844;52.380;7.018;2024-02-04T08:37:27;9.30;;;2.25;;
39098;SDS011;24844;52.380;7.018;2024-02-04T08:39:53;13.25;;;2.58;;
39098;SDS011;24844;52.380;7.018;2024-02-04T08:42:19;12.13;;;2.28;;
39098;SDS011;24844;52.380;7.018;2024-02-04T08:44:44;7.47;;;2.05;;
39098;SDS011;24844;52.380;7.018;2024-02-04T08:47:10;12.13;;;2.75;;
39098;SDS011;24844;52.380;7.018;2024-02-04T08:49:39;10.98;;;2.35;;
39098;SDS011;24844;52.380;7.018;2024-02-04T08:52:05;12.07;;;2.20;;
39098;SDS011;24844;52.380;7.018;2024-02-04T08:54:31;6.05;;;1.85;;
39098;SDS011;24844;52.380;7.018;2024-02-04T08:56:58;5.50;;;1.70;;
39098;SDS011;24844;52.380;7.018;2024-02-04T08:59:24;7.40;;;1.83;;
39098;SDS011;24844;52.380;7.018;2024-02-04T09:01:50;11.32;;;2.05;;
39098;SDS011;24844;52.380;7.018;2024-02-04T09:04:16;6.00;;;1.70;;
39098;SDS011;24844;52.380;7.018;2024-02-04T09:06:42;5.60;;;1.65;;
39098;SDS011;24844;52.380;7.018;2024-02-04T09:09:08;9.30;;;2.20;;
39098;SDS011;24844;52.380;7.018;2024-02-04T09:11:34;5.78;;;1.58;;
39098;SDS011;24844;52.380;7.018;2024-02-04T09:14:00;8.00;;;1.50;;
39098;SDS011;24844;52.380;7.018;2024-02-04T09:16:29;5.10;;;1.67;;
39098;SDS011;24844;52.380;7.018;2024-02-04T09:18:55;5.85;;;1.75;;
39098;SDS011;24844;52.380;7.018;2024-02-04T09:21:21;8.55;;;1.52;;
39098;SDS011;24844;52.380;7.018;2024-02-04T09:23:47;6.03;;;1.42;;
39098;SDS011;24844;52.380;7.018;2024-02-04T09:26:13;7.82;;;1.30;;
39098;SDS011;24844;52.380;7.018;2024-02-04T09:28:39;4.32;;;1.35;;
39098;SDS011;24844;52.380;7.018;2024-02-04T09:31:07;5.72;;;1.55;;
39098;SDS011;24844;52.380;7.018;2024-02-04T09:33:34;3.25;;;0.98;;
39098;SDS011;24844;52.380;7.018;2024-02-04T09:36:00;5.45;;;0.90;;
39098;SDS011;24844;52.380;7.018;2024-02-04T09:38:26;3.80;;;1.00;;
39098;SDS011;24844;52.380;7.018;2024-02-04T09:40:52;5.65;;;1.00;;
39098;SDS011;24844;52.380;7.018;2024-02-04T09:43:19;2.63;;;1.17;;
39098;SDS011;24844;52.380;7.018;2024-02-04T09:45:45;3.97;;;1.10;;
39098;SDS011;24844;52.380;7.018;2024-02-04T09:48:11;4.97;;;1.40;;
39098;SDS011;24844;52.380;7.018;2024-02-04T09:50:37;3.25;;;1.02;;
39098;SDS011;24844;52.380;7.018;2024-02-04T09:53:03;4.60;;;1.20;;
39098;SDS011;24844;52.380;7.018;2024-02-04T09:55:33;7.10;;;1.95;;
39098;SDS011;24844;52.380;7.018;2024-02-04T09:57:59;3.78;;;1.88;;
39098;SDS011;24844;52.380;7.018;2024-02-04T10:00:26;7.15;;;1.90;;
39098;SDS011;24844;52.380;7.018;2024-02-04T10:02:52;8.68;;;2.08;;
39098;SDS011;24844;52.380;7.018;2024-02-04T10:05:19;5.05;;;2.20;;
39098;SDS011;24844;52.380;7.018;2024-02-04T10:07:45;5.20;;;2.28;;
39098;SDS011;24844;52.380;7.018;2024-02-04T10:10:11;5.15;;;2.70;;
39098;SDS011;24844;52.380;7.018;2024-02-04T10:12:37;7.47;;;2.75;;
39098;SDS011;24844;52.380;7.018;2024-02-04T10:15:06;6.55;;;3.30;;
39098;SDS011;24844;52.380;7.018;2024-02-04T10:17:32;8.35;;;3.30;;
39098;SDS011;24844;52.380;7.018;2024-02-04T10:19:58;7.03;;;2.72;;
39098;SDS011;24844;52.380;7.018;2024-02-04T10:22:25;6.97;;;3.20;;
39098;SDS011;24844;52.380;7.018;2024-02-04T10:27:19;6.95;;;3.50;;
39098;SDS011;24844;52.380;7.018;2024-02-04T10:29:46;6.80;;;3.47;;
39098;SDS011;24844;52.380;7.018;2024-02-04T10:32:12;7.15;;;3.60;;
39098;SDS011;24844;52.380;7.018;2024-02-04T10:34:39;9.88;;;4.43;;
39098;SDS011;24844;52.380;7.018;2024-02-04T10:37:05;8.70;;;4.53;;
39098;SDS011;24844;52.380;7.018;2024-02-04T10:39:31;7.40;;;4.13;;
39098;SDS011;24844;52.380;7.018;2024-02-04T10:42:01;7.75;;;4.50;;
39098;SDS011;24844;52.380;7.018;2024-02-04T10:44:28;8.43;;;4.43;;
39098;SDS011;24844;52.380;7.018;2024-02-04T10:46:55;5.47;;;3.92;;
39098;SDS011;24844;52.380;7.018;2024-02-04T10:49:23;10.80;;;4.90;;
39098;SDS011;24844;52.380;7.018;2024-02-04T10:51:51;6.78;;;4.30;;
39098;SDS011;24844;52.380;7.018;2024-02-04T10:54:18;9.75;;;4.82;;
39098;SDS011;24844;52.380;7.018;2024-02-04T10:56:47;9.52;;;4.63;;
39098;SDS011;24844;52.380;7.018;2024-02-04T10:59:17;14.50;;;8.40;;
39098;SDS011;24844;52.380;7.018;2024-02-04T11:01:45;9.43;;;5.40;;
39098;SDS011;24844;52.380;7.018;2024-02-04T11:04:14;13.07;;;5.22;;
39098;SDS011;24844;52.380;7.018;2024-02-04T11:06:42;11.52;;;5.38;;
39098;SDS011;24844;52.380;7.018;2024-02-04T11:09:08;10.90;;;5.35;;
39098;SDS011;24844;52.380;7.018;2024-02-04T11:11:35;14.20;;;6.38;;
39098;SDS011;24844;52.380;7.018;2024-02-04T11:14:03;9.80;;;5.07;;
39098;SDS011;24844;52.380;7.018;2024-02-04T11:21:54;11.07;;;5.80;;
39098;SDS011;24844;52.380;7.018;2024-02-04T11:27:08;8.73;;;4.78;;
39098;SDS011;24844;52.380;7.018;2024-02-04T11:29:34;8.15;;;4.18;;
39098;SDS011;24844;52.380;7.018;2024-02-04T11:32:01;10.73;;;4.63;;
39098;SDS011;24844;52.380;7.018;2024-02-04T11:34:27;10.43;;;4.78;;
39098;SDS011;24844;52.380;7.018;2024-02-04T11:36:53;10.00;;;4.30;;
39098;SDS011;24844;52.380;7.018;2024-02-04T11:39:19;6.82;;;4.00;;
39098;SDS011;24844;52.380;7.018;2024-02-04T11:41:50;6.18;;;3.80;;
39098;SDS011;24844;52.380;7.018;2024-02-04T11:44:26;8.57;;;4.07;;
39098;SDS011;24844;52.380;7.018;2024-02-04T11:46:54;6.53;;;4.00;;
39098;SDS011;24844;52.380;7.018;2024-02-04T11:49:24;5.95;;;3.15;;
39098;SDS011;24844;52.380;7.018;2024-02-04T11:51:50;7.95;;;3.38;;
39098;SDS011;24844;52.380;7.018;2024-02-04T11:54:17;6.47;;;3.13;;
39098;SDS011;24844;52.380;7.018;2024-02-04T11:56:45;6.43;;;3.10;;
39098;SDS011;24844;52.380;7.018;2024-02-04T11:59:17;5.68;;;3.17;;
39098;SDS011;24844;52.380;7.018;2024-02-04T12:01:44;7.60;;;2.78;;
39098;SDS011;24844;52.380;7.018;2024-02-04T12:04:13;5.60;;;2.50;;
39098;SDS011;24844;52.380;7.018;2024-02-04T12:06:40;5.40;;;2.72;;
39098;SDS011;24844;52.380;7.018;2024-02-04T12:09:07;6.80;;;2.53;;
39098;SDS011;24844;52.380;7.018;2024-02-04T12:11:37;4.45;;;2.10;;
39098;SDS011;24844;52.380;7.018;2024-02-04T12:14:12;2.70;;;2.08;;
39098;SDS011;24844;52.380;7.018;2024-02-04T12:16:40;4.32;;;1.50;;
39098;SDS011;24844;52.380;7.018;2024-02-04T12:19:06;4.95;;;1.60;;
39098;SDS011;24844;52.380;7.018;2024-02-04T12:21:33;4.28;;;1.25;;
39098;SDS011;24844;52.380;7.018;2024-02-04T12:23:59;3.65;;;0.98;;
39098;SDS011;24844;52.380;7.018;2024-02-04T12:26:25;4.45;;;1.30;;
39098;SDS011;24844;52.380;7.018;2024-02-04T12:28:55;5.07;;;1.15;;
39098;SDS011;24844;52.380;7.018;2024-02-04T12:31:22;4.10;;;1.00;;
39098;SDS011;24844;52.380;7.018;2024-02-04T12:34:07;3.25;;;1.10;;
39098;SDS011;24844;52.380;7.018;2024-02-04T12:36:42;5.60;;;1.88;;
39098;SDS011;24844;52.380;7.018;2024-02-04T12:39:09;5.22;;;1.40;;
39098;SDS011;24844;52.380;7.018;2024-02-04T12:41:37;4.00;;;1.10;;
39098;SDS011;24844;52.380;7.018;2024-02-04T12:44:03;4.82;;;1.05;;
39098;SDS011;24844;52.380;7.018;2024-02-04T12:46:30;3.42;;;1.20;;
39098;SDS011;24844;52.380;7.018;2024-02-04T12:48:57;5.22;;;1.10;;
39098;SDS011;24844;52.380;7.018;2024-02-04T12:51:24;6.53;;;1.55;;
39098;SDS011;24844;52.380;7.018;2024-02-04T12:54:01;3.13;;;1.00;;
39098;SDS011;24844;52.380;7.018;2024-02-04T12:56:27;2.83;;;0.90;;
39098;SDS011;24844;52.380;7.018;2024-02-04T12:58:53;2.88;;;1.10;;
39098;SDS011;24844;52.380;7.018;2024-02-04T13:01:21;5.35;;;1.60;;
39098;SDS011;24844;52.380;7.018;2024-02-04T13:03:47;7.63;;;1.70;;
39098;SDS011;24844;52.380;7.018;2024-02-04T13:06:15;3.55;;;1.20;;
39098;SDS011;24844;52.380;7.018;2024-02-04T13:08:44;2.85;;;1.20;;
39098;SDS011;24844;52.380;7.018;2024-02-04T13:11:10;6.28;;;1.40;;
39098;SDS011;24844;52.380;7.018;2024-02-04T13:13:36;4.70;;;1.10;;
39098;SDS011;24844;52.380;7.018;2024-02-04T13:16:02;3.42;;;1.40;;
39098;SDS011;24844;52.380;7.018;2024-02-04T13:18:29;2.97;;;1.40;;
39098;SDS011;24844;52.380;7.018;2024-02-04T13:20:55;6.82;;;2.13;;
39098;SDS011;24844;52.380;7.018;2024-02-04T13:23:21;3.90;;;1.55;;
39098;SDS011;24844;52.380;7.018;2024-02-04T13:25:47;5.55;;;2.25;;
39098;SDS011;24844;52.380;7.018;2024-02-04T13:28:13;5.75;;;1.80;;
39098;SDS011;24844;52.380;7.018;2024-02-04T13:30:40;4.97;;;1.60;;
39098;SDS011;24844;52.380;7.018;2024-02-04T13:33:06;3.40;;;1.70;;
39098;SDS011;24844;52.380;7.018;2024-02-04T13:38:01;4.43;;;1.50;;
39098;SDS011;24844;52.380;7.018;2024-02-04T13:40:27;3.45;;;1.42;;
39098;SDS011;24844;52.380;7.018;2024-02-04T13:42:53;4.70;;;1.80;;
39098;SDS011;24844;52.380;7.018;2024-02-04T13:45:19;7.40;;;2.40;;
39098;SDS011;24844;52.380;7.018;2024-02-04T13:47:46;5.05;;;2.13;;
39098;SDS011;24844;52.380;7.018;2024-02-04T13:50:12;5.55;;;2.30;;
39098;SDS011;24844;52.380;7.018;2024-02-04T13:52:38;4.85;;;1.80;;
39098;SDS011;24844;52.380;7.018;2024-02-04T13:55:04;3.97;;;1.85;;
39098;SDS011;24844;52.380;7.018;2024-02-04T13:57:32;3.58;;;2.08;;
39098;SDS011;24844;52.380;7.018;2024-02-04T13:59:58;5.53;;;1.80;;
39098;SDS011;24844;52.380;7.018;2024-02-04T14:02:24;4.78;;;1.80;;
39098;SDS011;24844;52.380;7.018;2024-02-04T14:04:51;3.33;;;1.88;;
39098;SDS011;24844;52.380;7.018;2024-02-04T14:07:17;4.57;;;2.00;;
39098;SDS011;24844;52.380;7.018;2024-02-04T14:09:44;6.80;;;2.08;;
39098;SDS011;24844;52.380;7.018;2024-02-04T14:12:11;4.70;;;1.90;;
39098;SDS011;24844;52.380;7.018;2024-02-04T14:14:38;4.70;;;1.60;;
39098;SDS011;24844;52.380;7.018;2024-02-04T14:17:04;2.80;;;1.60;;
39098;SDS011;24844;52.380;7.018;2024-02-04T14:19:30;2.83;;;1.40;;
39098;SDS011;24844;52.380;7.018;2024-02-04T14:21:56;4.13;;;2.10;;
39098;SDS011;24844;52.380;7.018;2024-02-04T14:24:22;2.72;;;1.70;;
39098;SDS011;24844;52.380;7.018;2024-02-04T14:26:48;3.75;;;1.55;;
39098;SDS011;24844;52.380;7.018;2024-02-04T14:29:14;2.95;;;1.55;;
39098;SDS011;24844;52.380;7.018;2024-02-04T14:31:41;5.38;;;1.95;;
39098;SDS011;24844;52.380;7.018;2024-02-04T14:34:08;2.95;;;1.85;;
39098;SDS011;24844;52.380;7.018;2024-02-04T14:36:35;2.67;;;1.50;;
39098;SDS011;24844;52.380;7.018;2024-02-04T14:39:01;2.17;;;1.40;;
39098;SDS011;24844;52.380;7.018;2024-02-04T14:41:27;3.42;;;1.65;;
39098;SDS011;24844;52.380;7.018;2024-02-04T14:43:53;3.83;;;1.80;;
39098;SDS011;24844;52.380;7.018;2024-02-04T14:46:19;5.50;;;1.75;;
39098;SDS011;24844;52.380;7.018;2024-02-04T14:48:45;3.13;;;1.35;;
39098;SDS011;24844;52.380;7.018;2024-02-04T14:51:11;1.88;;;1.17;;